createdAt,value
2023-02-26T00:00:16.935Z,98263.94
2023-02-26T00:02:47.992Z,98258.75
2023-02-26T00:05:18.287Z,98244.56
2023-02-26T00:07:46.879Z,98224.63
2023-02-26T00:10:16.796Z,98214.56
2023-02-26T00:12:46.856Z,98239.38
2023-02-26T00:15:18.415Z,98266.13
2023-02-26T00:17:56.947Z,98274.31
2023-02-26T00:20:28.409Z,98268.03
2023-02-26T00:22:57.538Z,98285.75
2023-02-26T00:25:26.293Z,98292.84
2023-02-26T00:27:55.704Z,98294.97
2023-02-26T00:30:25.181Z,98278.88
2023-02-26T00:32:54.730Z,98288.44
2023-02-26T00:35:24.271Z,98300.44
2023-02-26T00:38:03.821Z,98288.97
2023-02-26T00:40:46.800Z,98277.16
2023-02-26T00:43:19.379Z,98272.00
2023-02-26T00:46:04.248Z,98262.44
2023-02-26T00:48:48.188Z,98249.03
2023-02-26T00:51:23.150Z,98254.22
2023-02-26T00:54:04.868Z,98247.66
2023-02-26T00:56:33.570Z,98245.16
2023-02-26T00:59:02.159Z,98240.00
2023-02-26T01:01:30.645Z,98226.06
2023-02-26T01:03:59.974Z,98229.63
2023-02-26T01:06:33.871Z,98231.53
2023-02-26T01:09:11.941Z,98225.28
2023-02-26T01:11:41.052Z,98219.00
2023-02-26T01:14:10.201Z,98210.00
2023-02-26T01:16:50.180Z,98215.97
2023-02-26T01:19:30.963Z,98227.16
2023-02-26T01:22:10.238Z,98219.50
2023-02-26T01:24:40.440Z,98230.41
2023-02-26T01:27:09.540Z,98235.84
2023-02-26T01:29:38.312Z,98237.75
2023-02-26T01:32:15.048Z,98246.22
2023-02-26T01:34:51.943Z,98249.44
2023-02-26T01:37:29.711Z,98256.28
2023-02-26T01:40:46.613Z,98269.88
2023-02-26T01:43:21.102Z,98272.28
2023-02-26T01:46:03.200Z,98259.22
2023-02-26T01:48:45.651Z,98257.00
2023-02-26T01:51:14.089Z,98275.78
2023-02-26T01:53:42.504Z,98275.22
2023-02-26T01:56:17.834Z,98272.50
2023-02-26T01:58:50.823Z,98265.41
2023-02-26T02:01:19.233Z,98267.03
2023-02-26T02:03:47.963Z,98273.59
2023-02-26T02:06:23.807Z,98268.13
2023-02-26T02:08:53.364Z,98260.75
2023-02-26T02:11:23.532Z,98271.94
2023-02-26T02:14:13.948Z,98286.06
2023-02-26T02:16:49.735Z,98292.63
2023-02-26T02:19:56.228Z,98313.03
2023-02-26T02:22:50.614Z,98289.84
2023-02-26T02:25:43.540Z,98294.75
2023-02-26T02:28:31.650Z,98289.81
2023-02-26T02:31:09.218Z,98286.25
2023-02-26T02:33:50.169Z,98299.63
2023-02-26T02:36:32.624Z,98301.53
2023-02-26T02:39:07.610Z,98305.09
2023-02-26T02:41:40.246Z,98308.06
2023-02-26T02:44:16.053Z,98336.41
2023-02-26T02:46:50.137Z,98325.50
2023-02-26T02:49:26.610Z,98321.69
2023-02-26T02:52:01.454Z,98330.44
2023-02-26T02:54:39.332Z,98343.81
2023-02-26T02:57:14.772Z,98334.28
2023-02-26T02:59:46.967Z,98324.22
2023-02-26T03:02:23.429Z,98333.78
2023-02-26T03:04:52.180Z,98334.56
2023-02-26T03:07:20.861Z,98329.13
2023-02-26T03:09:49.358Z,98333.19
2023-02-26T03:12:17.955Z,98329.66
2023-02-26T03:14:46.463Z,98321.72
2023-02-26T03:17:27.394Z,98352.81
2023-02-26T03:20:20.277Z,98379.75
2023-02-26T03:23:02.452Z,98373.22
2023-02-26T03:25:39.395Z,98382.47
2023-02-26T03:28:19.780Z,98380.56
2023-02-26T03:30:54.053Z,98373.78
2023-02-26T03:33:31.277Z,98371.63
2023-02-26T03:36:07.828Z,98366.72
2023-02-26T03:38:43.285Z,98370.00
2023-02-26T03:41:17.276Z,98370.84
2023-02-26T03:43:51.475Z,98386.38
2023-02-26T03:46:31.975Z,98382.56
2023-02-26T03:49:07.339Z,98399.22
2023-02-26T03:51:38.414Z,98407.94
2023-02-26T03:54:12.235Z,98410.44
2023-02-26T03:56:45.346Z,98412.91
2023-02-26T03:59:14.127Z,98409.59
2023-02-26T04:01:48.978Z,98411.50
2023-02-26T04:04:25.600Z,98412.59
2023-02-26T04:06:55.253Z,98415.06
2023-02-26T04:09:24.498Z,98428.69
2023-02-26T04:11:55.098Z,98440.16
2023-02-26T04:14:23.572Z,98441.00
2023-02-26T04:16:52.021Z,98442.66
2023-02-26T04:19:21.829Z,98455.19
2023-02-26T04:21:50.236Z,98452.44
2023-02-26T04:24:18.681Z,98449.72
2023-02-26T04:26:47.086Z,98458.16
2023-02-26T04:29:15.586Z,98465.53
2023-02-26T04:31:44.129Z,98464.47
2023-02-26T04:34:12.599Z,98454.06
2023-02-26T04:36:42.519Z,98454.06
2023-02-26T04:39:11.147Z,98462.22
2023-02-26T04:41:40.373Z,98469.03
2023-02-26T04:44:08.813Z,98466.28
2023-02-26T04:46:37.309Z,98477.19
2023-02-26T04:49:05.987Z,98479.94
2023-02-26T04:51:34.434Z,98472.00
2023-02-26T04:54:04.337Z,98469.78
2023-02-26T04:56:33.592Z,98464.00
2023-02-26T04:59:02.063Z,98474.63
2023-02-26T05:01:32.353Z,98477.84
2023-02-26T05:04:01.369Z,98471.84
2023-02-26T05:06:30.051Z,98477.56
2023-02-26T05:08:58.458Z,98477.78
2023-02-26T05:11:28.334Z,98474.50
2023-02-26T05:13:57.567Z,98492.78
2023-02-26T05:16:26.668Z,98483.44
2023-02-26T05:18:55.377Z,98489.66
2023-02-26T05:21:26.134Z,98500.81
2023-02-26T05:23:54.796Z,98499.41
2023-02-26T05:26:23.290Z,98511.38
2023-02-26T05:28:53.292Z,98517.09
2023-02-26T05:31:21.902Z,98517.09
2023-02-26T05:33:50.340Z,98514.63
2023-02-26T05:36:18.812Z,98518.34
2023-02-26T05:38:47.184Z,98516.66
2023-02-26T05:41:15.660Z,98521.72
2023-02-26T05:43:44.146Z,98538.47
2023-02-26T05:46:14.146Z,98537.59
2023-02-26T05:48:44.751Z,98551.72
2023-02-26T05:51:14.208Z,98550.56
2023-02-26T05:53:42.628Z,98559.78
2023-02-26T05:56:11.028Z,98557.56
2023-02-26T05:58:39.540Z,98561.38
2023-02-26T06:01:08.065Z,98560.22
2023-02-26T06:03:40.334Z,98571.34
2023-02-26T06:06:09.504Z,98574.31
2023-02-26T06:08:38.502Z,98579.19
2023-02-26T06:11:07.266Z,98584.66
2023-02-26T06:13:35.674Z,98589.84
2023-02-26T06:16:05.018Z,98592.56
2023-02-26T06:18:33.811Z,98592.56
2023-02-26T06:21:03.842Z,98600.97
2023-02-26T06:23:32.316Z,98595.53
2023-02-26T06:26:00.979Z,98602.88
2023-02-26T06:28:29.483Z,98609.97
2023-02-26T06:30:58.056Z,98611.59
2023-02-26T06:33:26.821Z,98608.41
2023-02-26T06:35:56.114Z,98607.09
2023-02-26T06:38:25.910Z,98612.00
2023-02-26T06:40:54.352Z,98608.72
2023-02-26T06:43:23.458Z,98618.28
2023-02-26T06:45:52.132Z,98620.78
2023-02-26T06:48:20.698Z,98628.44
2023-02-26T06:50:49.572Z,98630.91
2023-02-26T06:53:18.217Z,98630.19
2023-02-26T06:55:52.084Z,98626.94
2023-02-26T06:58:21.522Z,98618.53
2023-02-26T07:00:50.056Z,98629.75
2023-02-26T07:03:19.974Z,98627.09
2023-02-26T07:05:48.582Z,98636.41
2023-02-26T07:08:17.478Z,98649.53
2023-02-26T07:10:49.378Z,98646.56
2023-02-26T07:13:18.264Z,98644.97
2023-02-26T07:15:46.697Z,98649.44
2023-02-26T07:18:15.081Z,98659.91
2023-02-26T07:20:45.146Z,98660.56
2023-02-26T07:23:13.649Z,98675.56
2023-02-26T07:25:42.148Z,98672.03
2023-02-26T07:28:11.987Z,98670.13
2023-02-26T07:30:42.369Z,98671.78
2023-02-26T07:33:13.304Z,98668.81
2023-02-26T07:35:42.760Z,98664.19
2023-02-26T07:38:11.196Z,98669.38
2023-02-26T07:40:39.648Z,98673.50
2023-02-26T07:43:08.311Z,98673.25
2023-02-26T07:45:38.087Z,98680.09
2023-02-26T07:48:06.632Z,98677.13
2023-02-26T07:50:35.099Z,98676.59
2023-02-26T07:53:03.573Z,98685.69
2023-02-26T07:55:32.073Z,98678.16
2023-02-26T07:58:00.468Z,98680.69
2023-02-26T08:00:28.967Z,98685.38
2023-02-26T08:02:58.780Z,98688.47
2023-02-26T08:05:29.852Z,98690.66
2023-02-26T08:07:58.733Z,98688.00
2023-02-26T08:10:27.127Z,98692.97
2023-02-26T08:12:55.688Z,98696.31
2023-02-26T08:15:24.570Z,98705.63
2023-02-26T08:17:53.910Z,98702.97
2023-02-26T08:20:23.882Z,98708.72
2023-02-26T08:22:52.401Z,98718.09
2023-02-26T08:25:20.979Z,98721.97
2023-02-26T08:27:49.472Z,98722.84
2023-02-26T08:30:18.105Z,98722.91
2023-02-26T08:32:46.650Z,98730.38
2023-02-26T08:35:15.320Z,98740.28
2023-02-26T08:37:45.137Z,98740.03
2023-02-26T08:40:15.377Z,98739.50
2023-02-26T08:42:43.915Z,98749.97
2023-02-26T08:45:13.212Z,98743.53
2023-02-26T08:47:55.827Z,98747.22
2023-02-26T08:50:25.592Z,98754.09
2023-02-26T08:52:55.510Z,98761.28
2023-02-26T08:55:24.504Z,98771.44
2023-02-26T08:57:52.924Z,98766.84
2023-02-26T09:00:22.415Z,98773.41
2023-02-26T09:02:51.315Z,98770.19
2023-02-26T09:05:20.674Z,98777.53
2023-02-26T09:07:49.300Z,98776.97
2023-02-26T09:10:19.679Z,98774.81
2023-02-26T09:12:48.166Z,98782.56
2023-02-26T09:15:16.838Z,98793.28
2023-02-26T09:17:45.462Z,98793.03
2023-02-26T09:20:15.469Z,98803.19
2023-02-26T09:22:43.909Z,98809.56
2023-02-26T09:25:13.232Z,98803.56
2023-02-26T09:27:43.196Z,98800.00
2023-02-26T09:30:13.372Z,98807.09
2023-02-26T09:32:42.273Z,98802.53
2023-02-26T09:35:11.661Z,98795.47
2023-02-26T09:37:40.532Z,98797.97
2023-02-26T09:40:22.448Z,98814.44
2023-02-26T09:43:19.374Z,98809.78
2023-02-26T09:45:50.525Z,98799.66
2023-02-26T09:48:22.447Z,98793.38
2023-02-26T09:50:54.229Z,98811.19
2023-02-26T09:53:28.067Z,98818.03
2023-02-26T09:56:02.133Z,98821.34
2023-02-26T09:58:35.526Z,98822.75
2023-02-26T10:01:11.883Z,98821.75
2023-02-26T10:03:59.583Z,98830.59
2023-02-26T10:06:31.595Z,98829.03
2023-02-26T10:09:27.578Z,98823.09
2023-02-26T10:12:03.675Z,98830.84
2023-02-26T10:14:38.687Z,98830.09
2023-02-26T10:17:18.191Z,98840.25
2023-02-26T10:19:51.711Z,98844.41
2023-02-26T10:22:29.610Z,98853.47
2023-02-26T10:25:04.323Z,98849.34
2023-02-26T10:27:46.784Z,98851.53
2023-02-26T10:30:30.869Z,98850.13
2023-02-26T10:33:13.550Z,98855.66
2023-02-26T10:35:52.164Z,98860.09
2023-02-26T10:38:26.774Z,98849.19
2023-02-26T10:41:02.226Z,98855.22
2023-02-26T10:43:36.689Z,98859.59
2023-02-26T10:46:25.834Z,98853.84
2023-02-26T10:49:20.404Z,98845.09
2023-02-26T10:51:49.283Z,98847.28
2023-02-26T10:54:22.994Z,98854.16
2023-02-26T10:56:51.794Z,98860.16
2023-02-26T10:59:20.825Z,98864.84
2023-02-26T11:01:52.846Z,98884.28
2023-02-26T11:04:26.213Z,98901.19
2023-02-26T11:06:59.744Z,98889.53
2023-02-26T11:09:33.169Z,98890.38
2023-02-26T11:12:08.526Z,98891.59
2023-02-26T11:14:38.216Z,98889.56
2023-02-26T11:17:14.329Z,98884.94
2023-02-26T11:19:49.891Z,98888.28
2023-02-26T11:22:20.145Z,98897.38
2023-02-26T11:24:51.615Z,98887.84
2023-02-26T11:27:24.242Z,98904.81
2023-02-26T11:29:58.292Z,98907.50
2023-02-26T11:32:36.889Z,98920.63
2023-02-26T11:35:10.539Z,98925.59
2023-02-26T11:37:42.738Z,98923.69
2023-02-26T11:40:21.021Z,98916.31
2023-02-26T11:42:55.128Z,98913.59
2023-02-26T11:45:24.439Z,98908.66
2023-02-26T11:48:02.410Z,98903.47
2023-02-26T11:50:35.316Z,98904.66
2023-02-26T11:53:17.309Z,98902.81
2023-02-26T11:55:52.726Z,98890.84
2023-02-26T11:58:24.598Z,98881.19
2023-02-26T12:00:59.150Z,98888.72
2023-02-26T12:03:36.255Z,98898.63
2023-02-26T12:06:05.964Z,98899.47
2023-02-26T12:08:42.686Z,98925.81
2023-02-26T12:12:01.479Z,98926.53
2023-02-26T12:14:59.101Z,98925.03
2023-02-26T12:17:40.849Z,98925.72
2023-02-26T12:20:23.003Z,98924.50
2023-02-26T12:23:01.601Z,98931.06
2023-02-26T12:25:52.107Z,98919.81
2023-02-26T12:29:03.070Z,98919.34
2023-02-26T12:31:59.161Z,98929.03
2023-02-26T12:35:30.510Z,98928.53
2023-02-26T12:38:17.282Z,98926.41
2023-02-26T12:41:16.615Z,98922.06
2023-02-26T12:43:50.453Z,98920.72
2023-02-26T12:46:37.636Z,98919.06
2023-02-26T12:49:29.745Z,98931.09
2023-02-26T12:52:27.260Z,98946.06
2023-02-26T12:55:24.530Z,98942.69
2023-02-26T12:58:26.233Z,98949.47
2023-02-26T13:01:19.954Z,98938.47
2023-02-26T13:04:43.253Z,98952.66
2023-02-26T13:07:49.988Z,98961.97
2023-02-26T13:10:32.092Z,98958.69
2023-02-26T13:13:53.028Z,98962.81
2023-02-26T13:16:41.260Z,98973.25
2023-02-26T13:19:32.565Z,98982.03
2023-02-26T13:22:08.452Z,98985.31
2023-02-26T13:24:45.848Z,98987.78
2023-02-26T13:27:19.232Z,98987.53
2023-02-26T13:30:08.455Z,98989.44
2023-02-26T13:32:42.659Z,98999.63
2023-02-26T13:35:26.522Z,98992.53
2023-02-26T13:37:58.568Z,98992.28
2023-02-26T13:41:02.681Z,98995.53
2023-02-26T13:43:55.023Z,99003.75
2023-02-26T13:46:41.242Z,99002.63
2023-02-26T13:49:20.142Z,99010.81
2023-02-26T13:51:54.975Z,99012.66
2023-02-26T13:54:46.398Z,99008.53
2023-02-26T13:57:39.470Z,99007.91
2023-02-26T14:00:31.388Z,99010.63
2023-02-26T14:03:13.410Z,99008.44
2023-02-26T14:06:27.799Z,99001.63
2023-02-26T14:09:00.161Z,99008.78
2023-02-26T14:12:00.524Z,99006.91
2023-02-26T14:14:38.649Z,99011.38
2023-02-26T14:17:49.494Z,99008.41
2023-02-26T14:20:28.595Z,99008.72
2023-02-26T14:23:40.121Z,99004.94
2023-02-26T14:26:21.536Z,99012.06
2023-02-26T14:29:10.414Z,99010.13
2023-02-26T14:32:15.139Z,99013.91
2023-02-26T14:34:55.488Z,99016.34
2023-02-26T14:37:27.953Z,99021.81
2023-02-26T14:40:04.385Z,99029.41
2023-02-26T14:42:40.410Z,99027.16
2023-02-26T14:45:25.120Z,99030.91
2023-02-26T14:47:57.342Z,99030.81
2023-02-26T14:50:36.145Z,99044.66
2023-02-26T14:53:46.044Z,99038.44
2023-02-26T14:56:25.943Z,99044.91
2023-02-26T14:59:23.380Z,99053.81
2023-02-26T15:02:03.913Z,99067.44
2023-02-26T15:05:24.096Z,99068.97
2023-02-26T15:08:21.660Z,99081.50
2023-02-26T15:11:22.649Z,99088.81
2023-02-26T15:14:24.711Z,99093.91
2023-02-26T15:17:09.457Z,99097.63
2023-02-26T15:19:58.111Z,99101.88
2023-02-26T15:22:43.112Z,99098.00
2023-02-26T15:25:26.479Z,99096.84
2023-02-26T15:27:57.504Z,99103.38
2023-02-26T15:30:26.949Z,99097.13
2023-02-26T15:33:01.616Z,99102.59
2023-02-26T15:35:35.467Z,99100.66
2023-02-26T15:38:05.612Z,99098.19
2023-02-26T15:40:39.114Z,99091.06
2023-02-26T15:43:11.540Z,99094.88
2023-02-26T15:45:44.541Z,99097.63
2023-02-26T15:48:19.639Z,99101.41
2023-02-26T15:51:00.167Z,99103.56
2023-02-26T15:53:36.312Z,99111.19
2023-02-26T15:56:11.045Z,99118.00
2023-02-26T15:58:45.552Z,99126.69
2023-02-26T16:01:20.425Z,99130.78
2023-02-26T16:03:55.473Z,99134.56
2023-02-26T16:06:30.909Z,99141.94
2023-02-26T16:09:02.912Z,99155.00
2023-02-26T16:11:39.105Z,99170.25
2023-02-26T16:14:10.296Z,99174.31
2023-02-26T16:16:47.308Z,99169.34
2023-02-26T16:19:18.964Z,99183.50
2023-02-26T16:21:49.929Z,99170.00
2023-02-26T16:24:24.539Z,99163.63
2023-02-26T16:26:59.684Z,99170.06
2023-02-26T16:29:32.904Z,99171.91
2023-02-26T16:32:09.655Z,99168.00
2023-02-26T16:34:44.905Z,99178.84
2023-02-26T16:37:28.621Z,99185.03
2023-02-26T16:40:07.615Z,99185.78
2023-02-26T16:42:55.061Z,99184.56
2023-02-26T16:45:52.979Z,99195.06
2023-02-26T16:48:30.774Z,99204.56
2023-02-26T16:51:02.867Z,99208.03
2023-02-26T16:53:40.972Z,99212.66
2023-02-26T16:56:17.252Z,99222.19
2023-02-26T16:58:56.940Z,99218.81
2023-02-26T17:01:28.006Z,99233.53
2023-02-26T17:04:05.178Z,99234.59
2023-02-26T17:06:39.449Z,99240.88
2023-02-26T17:09:25.755Z,99249.34
2023-02-26T17:12:15.982Z,99246.25
2023-02-26T17:14:55.097Z,99263.44
2023-02-26T17:17:25.339Z,99261.78
2023-02-26T17:19:55.871Z,99272.94
2023-02-26T17:22:31.123Z,99281.38
2023-02-26T17:25:01.147Z,99290.63
2023-02-26T17:27:36.973Z,99296.31
2023-02-26T17:30:16.185Z,99301.19
2023-02-26T17:32:49.825Z,99296.78
2023-02-26T17:35:21.526Z,99297.63
2023-02-26T17:37:53.625Z,99299.31
2023-02-26T17:40:27.979Z,99297.97
2023-02-26T17:43:00.526Z,99295.25
2023-02-26T17:45:33.858Z,99304.84
2023-02-26T17:48:04.835Z,99292.03
2023-02-26T17:50:44.484Z,99301.06
2023-02-26T17:53:14.991Z,99305.44
2023-02-26T17:55:47.506Z,99313.41
2023-02-26T17:58:24.634Z,99305.22
2023-02-26T18:00:57.150Z,99302.47
2023-02-26T18:03:27.647Z,99316.97
2023-02-26T18:05:59.082Z,99324.91
2023-02-26T18:08:35.328Z,99320.28
2023-02-26T18:11:06.823Z,99323.00
2023-02-26T18:13:38.261Z,99326.78
2023-02-26T18:16:19.275Z,99322.41
2023-02-26T18:18:50.371Z,99330.81
2023-02-26T18:21:22.362Z,99335.09
2023-02-26T18:23:54.375Z,99321.72
2023-02-26T18:26:31.161Z,99330.63
2023-02-26T18:29:03.596Z,99332.13
2023-02-26T18:31:35.834Z,99338.09
2023-02-26T18:34:06.084Z,99350.31
2023-02-26T18:36:39.864Z,99344.47
2023-02-26T18:39:13.876Z,99353.97
2023-02-26T18:41:44.876Z,99356.09
2023-02-26T18:44:17.405Z,99354.47
2023-02-26T18:46:49.324Z,99357.41
2023-02-26T18:49:22.150Z,99356.81
2023-02-26T18:51:56.464Z,99355.97
2023-02-26T18:54:31.034Z,99353.50
2023-02-26T18:57:03.842Z,99355.38
2023-02-26T18:59:35.614Z,99352.66
2023-02-26T19:02:08.382Z,99354.59
2023-02-26T19:04:39.975Z,99362.28
2023-02-26T19:07:11.390Z,99359.09
2023-02-26T19:09:41.840Z,99361.34
2023-02-26T19:12:15.018Z,99363.56
2023-02-26T19:14:45.371Z,99366.31
2023-02-26T19:17:20.728Z,99366.88
2023-02-26T19:19:52.984Z,99375.91
2023-02-26T19:22:25.964Z,99376.75
2023-02-26T19:24:57.686Z,99389.56
2023-02-26T19:27:31.629Z,99384.34
2023-02-26T19:30:03.976Z,99382.06
2023-02-26T19:32:36.598Z,99390.75
2023-02-26T19:35:12.617Z,99386.59
2023-02-26T19:37:48.351Z,99393.81
2023-02-26T19:40:20.919Z,99401.66
2023-02-26T19:42:51.068Z,99402.56
2023-02-26T19:45:22.552Z,99405.41
2023-02-26T19:47:56.412Z,99406.94
2023-02-26T19:50:27.981Z,99399.47
2023-02-26T19:52:58.588Z,99406.22
2023-02-26T19:55:29.031Z,99405.84
2023-02-26T19:57:59.276Z,99408.22
2023-02-26T20:00:30.760Z,99413.53
2023-02-26T20:03:02.896Z,99413.19
2023-02-26T20:05:33.741Z,99404.63
2023-02-26T20:08:06.621Z,99419.53
2023-02-26T20:10:37.529Z,99412.06
2023-02-26T20:13:08.231Z,99420.72
2023-02-26T20:15:38.085Z,99430.19
2023-02-26T20:18:09.976Z,99431.47
2023-02-26T20:20:40.725Z,99436.91
2023-02-26T20:23:11.030Z,99451.34
2023-02-26T20:25:41.786Z,99449.25
2023-02-26T20:28:14.073Z,99445.25
2023-02-26T20:30:44.008Z,99455.91
2023-02-26T20:33:17.695Z,99460.91
2023-02-26T20:35:48.615Z,99454.97
2023-02-26T20:38:24.194Z,99461.00
2023-02-26T20:40:54.938Z,99458.88
2023-02-26T20:43:25.556Z,99466.00
2023-02-26T20:45:57.280Z,99463.88
2023-02-26T20:48:29.246Z,99470.75
2023-02-26T20:51:07.336Z,99467.78
2023-02-26T20:53:37.822Z,99473.88
2023-02-26T20:56:11.862Z,99475.53
2023-02-26T20:58:42.341Z,99473.63
2023-02-26T21:01:13.295Z,99475.53
2023-02-26T21:03:45.536Z,99478.84
2023-02-26T21:06:15.313Z,99477.78
2023-02-26T21:08:47.271Z,99479.44
2023-02-26T21:11:17.020Z,99484.88
2023-02-26T21:13:48.209Z,99490.13
2023-02-26T21:16:17.971Z,99482.75
2023-02-26T21:18:49.337Z,99490.94
2023-02-26T21:21:19.560Z,99488.00
2023-02-26T21:23:49.174Z,99495.72
2023-02-26T21:26:19.565Z,99501.78
2023-02-26T21:28:49.593Z,99497.97
2023-02-26T21:31:22.186Z,99501.28
2023-02-26T21:33:53.341Z,99501.28
2023-02-26T21:36:22.864Z,99510.53
2023-02-26T21:38:51.387Z,99497.97
2023-02-26T21:41:22.032Z,99513.28
2023-02-26T21:43:50.762Z,99501.53
2023-02-26T21:46:19.819Z,99508.03
2023-02-26T21:48:50.277Z,99501.97
2023-02-26T21:51:21.529Z,99509.34
2023-02-26T21:53:50.739Z,99511.25
2023-02-26T21:56:20.310Z,99511.44
2023-02-26T21:58:48.880Z,99520.72
2023-02-26T22:01:17.343Z,99514.66
2023-02-26T22:03:45.891Z,99523.28
2023-02-26T22:06:14.360Z,99526.00
2023-02-26T22:08:44.423Z,99521.84
2023-02-26T22:11:12.880Z,99522.94
2023-02-26T22:13:41.375Z,99527.75
2023-02-26T22:16:10.086Z,99523.38
2023-02-26T22:18:39.043Z,99532.84
2023-02-26T22:21:08.097Z,99525.72
2023-02-26T22:23:36.983Z,99535.81
2023-02-26T22:26:07.056Z,99542.75
2023-02-26T22:28:35.525Z,99540.28
2023-02-26T22:31:04.160Z,99533.63
2023-02-26T22:33:32.709Z,99540.38
2023-02-26T22:36:01.810Z,99540.81
2023-02-26T22:38:30.591Z,99534.16
2023-02-26T22:40:59.111Z,99544.47
2023-02-26T22:43:28.915Z,99547.38
2023-02-26T22:45:57.391Z,99550.59
2023-02-26T22:48:25.815Z,99556.25
2023-02-26T22:50:54.372Z,99554.19
2023-02-26T22:53:22.818Z,99553.59
2023-02-26T22:55:53.689Z,99567.47
2023-02-26T22:58:22.308Z,99563.91
2023-02-26T23:00:58.802Z,99568.50
2023-02-26T23:03:27.305Z,99571.81
2023-02-26T23:05:55.819Z,99574.56
2023-02-26T23:08:24.586Z,99576.22
2023-02-26T23:10:56.138Z,99580.84
2023-02-26T23:13:25.120Z,99572.66
2023-02-26T23:15:55.240Z,99574.78
2023-02-26T23:18:23.794Z,99575.88
2023-02-26T23:20:53.005Z,99586.38
2023-02-26T23:23:21.515Z,99587.03
2023-02-26T23:25:50.051Z,99594.59
2023-02-26T23:28:18.458Z,99601.56
2023-02-26T23:30:47.121Z,99605.78
2023-02-26T23:33:17.198Z,99597.47
2023-02-26T23:35:45.695Z,99611.53
2023-02-26T23:38:14.198Z,99609.22
2023-02-26T23:40:42.683Z,99619.50
2023-02-26T23:43:11.193Z,99624.34
2023-02-26T23:45:39.682Z,99622.91
2023-02-26T23:48:08.710Z,99612.25
2023-02-26T23:50:38.529Z,99618.53
2023-02-26T23:53:07.038Z,99617.47
2023-02-26T23:55:35.802Z,99623.31
2023-02-26T23:58:04.251Z,99611.13
